Time;durP1;ratioP1;P1;durP2;ratioP2;P2;SDS_P1;SDS_P2;PMS_P1;PMS_P2;Temp;Humidity;BMP_temperature;BMP_pressure;BME280_temperature;BME280_humidity;BME280_pressure;Samples;Min_cycle;Max_cycle;Signal;HPM_P1;HPM_P2
2023/04/22 00:00:48;;;;;;;49.93;34.67;;;7.30;99.90;;;;;;4966333;28;39646;-75
2023/04/22 00:03:14;;;;;;;56.87;37.07;;;7.30;99.90;;;;;;4965562;28;36272;-75
2023/04/22 00:05:41;;;;;;;60.90;39.80;;;7.20;99.90;;;;;;4970288;28;37764;-75
2023/04/22 00:08:07;;;;;;;59.90;40.83;;;7.20;99.90;;;;;;4971118;28;39189;-76
2023/04/22 00:10:34;;;;;;;61.03;40.83;;;7.10;99.90;;;;;;4966723;28;37405;-75
2023/04/22 00:13:00;;;;;;;60.30;40.07;;;7.10;99.90;;;;;;4969004;28;37208;-75
2023/04/22 00:15:26;;;;;;;55.40;38.00;;;7.10;99.90;;;;;;4972853;28;38318;-76
2023/04/22 00:17:52;;;;;;;65.97;42.27;;;7.00;99.90;;;;;;4971587;28;38451;-75
2023/04/22 00:20:22;;;;;;;53.93;37.73;;;7.20;99.90;;;;;;4970621;28;37251;-74
2023/04/22 00:22:48;;;;;;;64.40;39.07;;;7.20;99.90;;;;;;4968824;28;36610;-74
2023/04/22 00:25:15;;;;;;;63.40;43.30;;;7.20;99.90;;;;;;4967322;28;38586;-75
2023/04/22 00:27:41;;;;;;;56.80;39.77;;;7.20;99.90;;;;;;4970424;28;37846;-75
2023/04/22 00:30:08;;;;;;;54.23;38.50;;;7.10;99.90;;;;;;4971036;28;38158;-74
2023/04/22 00:32:34;;;;;;;51.60;37.57;;;7.00;99.90;;;;;;4967073;28;36294;-75
2023/04/22 00:35:01;;;;;;;61.90;41.67;;;7.00;99.90;;;;;;4966696;28;35797;-75
2023/04/22 00:37:27;;;;;;;59.40;39.33;;;7.00;99.90;;;;;;4971176;28;37278;-75
2023/04/22 00:39:53;;;;;;;50.57;37.07;;;6.90;99.90;;;;;;4968194;28;38742;-76
2023/04/22 00:42:20;;;;;;;63.03;41.43;;;6.80;99.90;;;;;;4968985;28;37597;-75
2023/04/22 00:44:47;;;;;;;65.37;41.07;;;6.80;99.90;;;;;;4965935;28;37530;-76
2023/04/22 00:47:13;;;;;;;62.77;40.80;;;6.70;99.90;;;;;;4966852;28;37290;-75
2023/04/22 00:49:39;;;;;;;61.57;39.73;;;6.70;99.90;;;;;;4968111;28;37282;-74
2023/04/22 00:52:06;;;;;;;55.13;37.60;;;6.70;99.90;;;;;;4970797;28;37207;-75
2023/04/22 00:54:34;;;;;;;67.17;40.90;;;6.70;99.90;;;;;;4971262;28;38153;-75
2023/04/22 00:57:02;;;;;;;68.90;41.03;;;6.70;99.90;;;;;;4975467;28;37809;-76
2023/04/22 00:59:29;;;;;;;63.03;40.27;;;6.80;99.90;;;;;;4969567;28;48342;-76
2023/04/22 01:04:29;;;;;;;62.33;41.57;;;6.70;99.90;;;;;;4998803;28;20536;-78
2023/04/22 01:06:55;;;;;;;63.37;40.87;;;6.60;99.90;;;;;;5004273;28;37250;-75
2023/04/22 01:09:21;;;;;;;58.80;39.27;;;6.60;99.90;;;;;;5013300;28;38594;-77
2023/04/22 01:11:47;;;;;;;60.30;39.83;;;6.50;99.90;;;;;;5009594;28;36474;-78
2023/04/22 01:14:14;;;;;;;61.00;37.90;;;6.40;99.90;;;;;;5011946;28;38785;-77
2023/04/22 01:16:42;;;;;;;58.17;39.20;;;6.40;99.90;;;;;;5016722;28;38167;-77
2023/04/22 01:19:10;;;;;;;59.97;39.43;;;6.30;99.90;;;;;;5002771;28;38158;-77
2023/04/22 01:21:38;;;;;;;55.67;38.10;;;6.30;99.90;;;;;;5004933;28;37030;-77
2023/04/22 01:24:04;;;;;;;60.43;39.80;;;6.30;99.90;;;;;;5007501;28;37928;-77
2023/04/22 01:26:31;;;;;;;66.33;41.57;;;6.30;99.90;;;;;;5008535;28;38792;-77
2023/04/22 01:28:57;;;;;;;67.37;40.00;;;6.30;99.90;;;;;;5009510;28;38352;-78
2023/04/22 01:31:23;;;;;;;58.37;39.63;;;6.20;99.90;;;;;;5008937;28;36548;-77
2023/04/22 01:33:50;;;;;;;60.80;39.03;;;6.10;99.90;;;;;;5004528;28;39214;-77
2023/04/22 01:36:16;;;;;;;60.87;38.30;;;6.00;99.90;;;;;;5004564;28;37091;-77
2023/04/22 01:38:42;;;;;;;57.43;37.27;;;6.00;99.90;;;;;;5003714;28;38737;-77
2023/04/22 01:41:09;;;;;;;61.10;39.43;;;6.00;99.90;;;;;;5010865;28;37627;-78
2023/04/22 01:43:35;;;;;;;62.47;40.13;;;6.00;99.90;;;;;;5009794;28;38014;-78
2023/04/22 01:46:03;;;;;;;58.77;39.63;;;6.00;99.90;;;;;;5011988;28;37157;-77
2023/04/22 01:48:29;;;;;;;62.37;39.13;;;5.90;99.90;;;;;;5008488;28;49727;-78
2023/04/22 01:50:55;;;;;;;56.70;37.30;;;5.90;99.90;;;;;;5013737;28;39433;-78
2023/04/22 01:53:21;;;;;;;53.83;36.57;;;5.90;99.90;;;;;;5018797;28;37569;-77
2023/04/22 01:55:48;;;;;;;52.90;35.53;;;5.90;99.90;;;;;;5011862;28;37099;-78
2023/04/22 01:58:14;;;;;;;57.20;37.13;;;5.90;99.90;;;;;;5009987;28;39156;-78
2023/04/22 02:00:40;;;;;;;53.63;33.47;;;5.90;99.90;;;;;;5007631;28;37579;-77
2023/04/22 02:03:06;;;;;;;57.10;37.23;;;5.90;99.90;;;;;;5000131;28;38868;-77
2023/04/22 02:05:32;;;;;;;62.93;39.47;;;5.90;99.90;;;;;;5018076;28;38430;-77
2023/04/22 02:07:58;;;;;;;58.67;37.30;;;5.90;99.90;;;;;;5011344;28;38340;-77
2023/04/22 02:10:24;;;;;;;56.80;35.97;;;5.80;99.90;;;;;;5030317;28;37829;-77
2023/04/22 02:12:50;;;;;;;58.77;37.37;;;5.90;99.90;;;;;;5011991;28;38708;-77
2023/04/22 02:15:16;;;;;;;56.80;37.77;;;5.90;99.90;;;;;;5011219;28;38064;-78
2023/04/22 02:17:43;;;;;;;60.90;39.73;;;5.90;99.90;;;;;;5010163;28;36747;-77
2023/04/22 02:20:12;;;;;;;61.13;38.37;;;6.00;99.90;;;;;;5006025;28;36232;-77
2023/04/22 02:22:40;;;;;;;57.03;38.13;;;6.00;99.90;;;;;;5019935;28;37628;-78
2023/04/22 02:25:07;;;;;;;54.60;35.93;;;6.00;99.90;;;;;;5013889;28;36958;-78
2023/04/22 02:27:33;;;;;;;51.70;34.60;;;6.00;99.90;;;;;;5015017;28;37819;-77
2023/04/22 02:30:00;;;;;;;57.73;38.13;;;6.00;99.90;;;;;;5011929;28;36678;-76
2023/04/22 02:32:26;;;;;;;63.63;38.83;;;6.00;99.90;;;;;;5009510;28;37679;-77
2023/04/22 02:34:52;;;;;;;66.17;40.60;;;6.00;99.90;;;;;;5009845;28;36838;-77
2023/04/22 02:37:18;;;;;;;62.27;38.63;;;6.00;99.90;;;;;;5017502;28;38267;-77
2023/04/22 02:39:44;;;;;;;62.80;38.80;;;6.00;99.90;;;;;;5019438;28;36664;-77
2023/04/22 02:42:10;;;;;;;56.73;37.37;;;6.00;99.90;;;;;;5015662;28;39909;-78
2023/04/22 02:44:36;;;;;;;65.13;39.13;;;6.10;99.90;;;;;;5018798;28;37643;-78
2023/04/22 02:47:02;;;;;;;65.70;40.80;;;6.10;99.90;;;;;;5010416;28;39304;-77
2023/04/22 02:49:28;;;;;;;67.53;41.03;;;6.10;99.90;;;;;;5010052;28;37669;-76
2023/04/22 02:51:56;;;;;;;61.77;39.30;;;6.00;99.90;;;;;;5008970;28;39149;-76
2023/04/22 02:54:22;;;;;;;59.73;37.00;;;6.00;99.90;;;;;;5007589;28;37324;-76
2023/04/22 02:56:48;;;;;;;61.50;39.97;;;6.00;99.90;;;;;;5011244;28;39679;-76
2023/04/22 02:59:14;;;;;;;81.23;45.23;;;6.00;99.90;;;;;;5012543;28;37716;-76
2023/04/22 03:01:40;;;;;;;75.03;44.27;;;6.00;99.90;;;;;;5012434;28;38957;-76
2023/04/22 03:04:06;;;;;;;76.80;45.60;;;6.10;99.90;;;;;;5007256;28;37277;-76
2023/04/22 03:06:32;;;;;;;75.83;44.10;;;6.20;99.90;;;;;;5015189;28;38110;-77
2023/04/22 03:08:59;;;;;;;90.20;50.67;;;6.30;99.90;;;;;;5017891;28;36682;-77
2023/04/22 03:11:25;;;;;;;86.87;48.57;;;6.40;99.90;;;;;;5017801;28;37850;-77
2023/04/22 03:13:52;;;;;;;86.07;49.20;;;6.40;99.90;;;;;;5021241;28;38107;-77
2023/04/22 03:16:18;;;;;;;91.53;51.90;;;6.40;99.90;;;;;;5005481;28;36684;-78
2023/04/22 03:18:44;;;;;;;86.80;50.43;;;6.50;99.90;;;;;;5005111;28;38569;-77
2023/04/22 03:21:10;;;;;;;103.97;53.10;;;6.50;99.90;;;;;;5010959;28;37560;-78
2023/04/22 03:23:36;;;;;;;83.63;49.37;;;6.50;99.90;;;;;;5013796;28;37116;-77
2023/04/22 03:26:02;;;;;;;82.27;47.93;;;6.50;99.90;;;;;;5007521;28;36692;-77
2023/04/22 03:28:28;;;;;;;90.23;50.67;;;6.50;99.90;;;;;;5015301;28;36683;-78
2023/04/22 03:30:54;;;;;;;85.53;49.90;;;6.50;99.90;;;;;;5012907;28;38098;-77
2023/04/22 03:33:21;;;;;;;88.87;49.57;;;6.50;99.90;;;;;;5014164;28;38014;-78
2023/04/22 03:35:49;;;;;;;90.83;50.50;;;6.60;99.90;;;;;;5013783;28;39212;-78
2023/04/22 03:38:16;;;;;;;89.73;50.47;;;6.60;99.90;;;;;;5013144;28;36224;-77
2023/04/22 03:40:42;;;;;;;85.93;49.77;;;6.50;99.90;;;;;;5013824;28;37873;-78
2023/04/22 03:43:08;;;;;;;90.23;52.10;;;6.60;99.90;;;;;;5014930;28;38323;-77
2023/04/22 03:45:35;;;;;;;104.63;56.67;;;6.60;99.90;;;;;;5016501;28;38227;-78
2023/04/22 03:48:02;;;;;;;100.73;56.17;;;6.60;99.90;;;;;;5014168;28;36052;-77
2023/04/22 03:50:28;;;;;;;100.93;56.13;;;6.70;99.90;;;;;;5013054;28;46703;-77
2023/04/22 03:52:54;;;;;;;102.00;54.40;;;6.70;99.90;;;;;;5008796;28;38786;-78
2023/04/22 03:55:20;;;;;;;85.70;50.67;;;6.60;99.90;;;;;;5013425;28;38306;-78
2023/04/22 03:57:47;;;;;;;98.37;53.90;;;6.60;99.90;;;;;;5009897;28;35872;-78
2023/04/22 04:00:13;;;;;;;103.17;55.70;;;6.60;99.90;;;;;;5014609;28;37655;-78
2023/04/22 04:02:40;;;;;;;86.23;50.77;;;6.60;99.90;;;;;;5005577;28;38655;-78
2023/04/22 04:05:08;;;;;;;110.97;57.33;;;6.60;99.90;;;;;;5011479;28;37315;-78
2023/04/22 04:07:34;;;;;;;99.83;53.63;;;6.60;99.90;;;;;;5013235;28;36122;-78
2023/04/22 04:10:00;;;;;;;89.90;51.83;;;6.60;99.90;;;;;;5008617;28;38479;-78
2023/04/22 04:12:26;;;;;;;104.33;59.27;;;6.70;99.90;;;;;;5022179;28;37379;-77
2023/04/22 04:14:52;;;;;;;111.53;62.63;;;6.70;99.90;;;;;;5010443;28;37878;-78
2023/04/22 04:17:19;;;;;;;104.10;58.67;;;6.70;99.90;;;;;;5014300;28;36045;-77
2023/04/22 04:19:45;;;;;;;102.97;59.70;;;6.70;99.90;;;;;;5005861;28;37953;-77
2023/04/22 04:22:11;;;;;;;110.03;60.40;;;6.70;99.90;;;;;;5017214;28;37885;-77
2023/04/22 04:24:40;;;;;;;108.43;59.67;;;6.70;99.90;;;;;;5019386;28;38640;-77
2023/04/22 04:27:07;;;;;;;97.97;56.27;;;6.70;99.90;;;;;;5005681;28;38157;-76
2023/04/22 04:29:35;;;;;;;102.90;59.13;;;6.70;99.90;;;;;;5008761;28;37657;-78
2023/04/22 04:32:02;;;;;;;107.80;58.47;;;6.70;99.90;;;;;;5021018;28;37408;-78
2023/04/22 04:34:28;;;;;;;109.90;60.10;;;6.70;99.90;;;;;;5015648;28;47355;-78
2023/04/22 04:36:54;;;;;;;107.23;58.67;;;6.70;99.90;;;;;;5019589;28;37144;-78
2023/04/22 04:39:20;;;;;;;111.60;58.77;;;6.70;99.90;;;;;;5016304;28;39098;-78
2023/04/22 04:41:47;;;;;;;101.33;59.77;;;6.70;99.90;;;;;;5015522;28;38655;-78
2023/04/22 04:44:14;;;;;;;98.73;56.87;;;6.70;99.90;;;;;;5011594;28;38271;-77
2023/04/22 04:46:41;;;;;;;114.30;60.93;;;6.70;99.90;;;;;;5019666;28;37610;-77
2023/04/22 04:49:11;;;;;;;127.87;64.13;;;6.70;99.90;;;;;;5017534;28;37618;-77
2023/04/22 04:51:38;;;;;;;94.40;56.70;;;6.70;99.90;;;;;;5009824;28;37294;-78
2023/04/22 04:54:04;;;;;;;108.00;61.07;;;6.70;99.90;;;;;;5019881;28;38473;-77
2023/04/22 04:56:30;;;;;;;109.77;62.20;;;6.70;99.90;;;;;;5016089;28;35972;-77
2023/04/22 04:58:56;;;;;;;122.63;65.13;;;6.70;99.90;;;;;;5011496;28;37588;-77
2023/04/22 05:01:22;;;;;;;112.20;62.60;;;6.80;99.90;;;;;;5016605;28;36772;-77
2023/04/22 05:03:48;;;;;;;126.80;65.90;;;6.80;99.90;;;;;;5016813;28;38030;-77
2023/04/22 05:06:15;;;;;;;103.53;59.90;;;6.80;99.90;;;;;;5018888;28;38205;-78
2023/04/22 05:08:41;;;;;;;112.57;63.93;;;6.90;99.90;;;;;;5018367;28;39234;-78
2023/04/22 05:11:07;;;;;;;110.70;63.47;;;6.90;99.90;;;;;;5019126;28;39748;-78
2023/04/22 05:13:33;;;;;;;116.67;66.13;;;6.90;99.90;;;;;;5012404;28;36271;-77
2023/04/22 05:15:59;;;;;;;120.20;64.00;;;7.00;99.90;;;;;;5035876;28;36465;-77
2023/04/22 05:18:25;;;;;;;104.77;59.47;;;7.00;99.90;;;;;;5016677;28;39490;-78
2023/04/22 05:20:51;;;;;;;115.97;65.50;;;7.10;99.90;;;;;;5017479;28;37478;-78
2023/04/22 05:23:18;;;;;;;92.50;57.87;;;7.10;99.90;;;;;;5019282;28;38914;-79
2023/04/22 05:25:44;;;;;;;94.20;59.60;;;7.10;99.90;;;;;;5019822;28;36398;-79
2023/04/22 05:28:10;;;;;;;105.00;61.93;;;7.20;99.90;;;;;;5020420;28;37747;-79
2023/04/22 05:30:36;;;;;;;105.80;60.37;;;7.30;99.90;;;;;;5015898;28;38511;-79
2023/04/22 05:33:02;;;;;;;114.93;64.57;;;7.30;99.90;;;;;;5016205;28;37672;-79
2023/04/22 05:35:28;;;;;;;93.10;57.90;;;7.40;99.90;;;;;;5013570;28;38477;-78
2023/04/22 05:37:54;;;;;;;130.37;66.57;;;7.50;99.90;;;;;;5009898;28;38440;-80
2023/04/22 05:40:20;;;;;;;113.30;65.60;;;7.50;99.90;;;;;;5008510;28;37961;-78
2023/04/22 05:42:46;;;;;;;108.30;64.20;;;7.50;99.90;;;;;;5003195;28;37155;-78
2023/04/22 05:45:14;;;;;;;103.93;62.43;;;7.60;99.90;;;;;;5014458;28;36063;-79
2023/04/22 05:47:44;;;;;;;115.03;66.93;;;7.70;99.90;;;;;;5012466;28;37610;-79
2023/04/22 05:50:11;;;;;;;118.17;65.40;;;7.80;99.90;;;;;;5008192;28;37297;-79
2023/04/22 05:52:37;;;;;;;120.63;67.33;;;7.80;99.90;;;;;;5011034;28;37127;-78
2023/04/22 05:55:03;;;;;;;103.33;63.33;;;7.90;99.90;;;;;;5003831;28;38855;-79
2023/04/22 05:57:30;;;;;;;96.83;60.97;;;8.00;99.90;;;;;;5008019;28;37961;-79
2023/04/22 05:59:59;;;;;;;90.60;59.83;;;8.00;99.90;;;;;;5009327;28;38681;-78
2023/04/22 06:02:25;;;;;;;90.30;57.70;;;8.10;99.90;;;;;;5007202;28;39068;-79
2023/04/22 06:04:51;;;;;;;108.10;63.00;;;8.10;99.90;;;;;;5015988;28;37412;-80
2023/04/22 06:07:38;;;;;;;;;;;;;;;;;;;;;
2023/04/22 06:10:05;;;;;;;82.90;55.90;;;8.20;99.90;;;;;;5025063;28;39399;-80
2023/04/22 06:12:33;;;;;;;75.37;53.57;;;8.20;99.90;;;;;;5018061;28;37801;-80
2023/04/22 06:14:59;;;;;;;75.67;52.73;;;8.30;99.90;;;;;;5014813;28;36366;-80
2023/04/22 06:17:25;;;;;;;79.83;54.17;;;8.30;99.90;;;;;;5020004;28;39517;-80
2023/04/22 06:19:51;;;;;;;98.63;60.30;;;8.30;99.90;;;;;;5015665;28;38859;-79
2023/04/22 06:22:17;;;;;;;91.87;60.50;;;8.40;99.90;;;;;;5021384;28;36817;-80
2023/04/22 06:24:51;;;;;;;79.65;55.45;;;8.50;99.90;;;;;;5029993;28;38258;-80
2023/04/22 06:27:17;;;;;;;83.60;57.03;;;8.60;99.90;;;;;;5029715;28;39760;-80
2023/04/22 06:29:57;;;;;;;94.27;60.30;;;8.70;99.90;;;;;;5029279;28;37319;-80
2023/04/22 06:32:28;;;;;;;71.13;51.77;;;8.70;99.90;;;;;;4995937;28;40052;-81
2023/04/22 06:38:14;;;;;;;118.82;66.85;;;8.80;99.90;;;;;;5407359;23;20033;-83
2023/04/22 06:46:45;;;;;;;76.50;52.75;;;9.50;99.90;;;;;;5631097;23;19927;-81
2023/04/22 06:54:40;;;;;;;74.05;52.65;;;9.90;99.90;;;;;;6083416;23;20026;-80
2023/04/22 06:57:06;;;;;;;67.45;51.25;;;9.90;99.90;;;;;;4985497;28;37121;-80
2023/04/22 06:59:33;;;;;;;65.57;49.30;;;9.90;99.90;;;;;;5187105;23;38900;-82
2023/04/22 07:01:59;;;;;;;64.40;48.35;;;9.90;99.90;;;;;;5000096;28;38722;-80
2023/04/22 07:04:30;;;;;;;60.88;45.90;;;9.90;99.90;;;;;;4995757;28;37195;-81
2023/04/22 07:06:58;;;;;;;66.03;48.90;;;10.00;99.90;;;;;;4989590;28;36281;-81
2023/04/22 07:09:25;;;;;;;63.85;48.50;;;10.20;99.90;;;;;;5006969;28;42304;-79
2023/04/22 07:11:58;;;;;;;56.67;43.65;;;10.20;99.90;;;;;;4978589;28;38825;-82
2023/04/22 07:14:28;;;;;;;50.65;41.55;;;10.20;99.90;;;;;;4998037;28;36948;-82
2023/04/22 07:16:56;;;;;;;50.80;41.20;;;10.20;99.90;;;;;;4996109;28;38093;-81
2023/04/22 07:19:29;;;;;;;55.45;42.22;;;10.30;99.90;;;;;;5010058;28;37712;-82
2023/04/22 07:22:02;;;;;;;;;;;10.40;99.90;;;;;;5010993;28;37703;-81
2023/04/22 07:29:42;;;;;;;41.42;34.47;;;10.50;99.90;;;;;;5069518;23;20058;-80
2023/04/22 07:32:08;;;;;;;35.15;28.58;;;10.60;99.90;;;;;;4941338;28;37405;-76
2023/04/22 07:34:34;;;;;;;33.28;28.85;;;10.30;99.90;;;;;;4924684;28;38223;-78
2023/04/22 07:37:00;;;;;;;42.58;32.50;;;10.30;99.90;;;;;;4928485;28;38533;-78
2023/04/22 07:39:26;;;;;;;37.38;32.10;;;10.60;99.90;;;;;;4929533;28;38920;-78
2023/04/22 07:41:55;;;;;;;36.80;30.25;;;11.00;99.90;;;;;;4936365;28;38472;-79
2023/04/22 07:44:21;;;;;;;37.22;31.88;;;11.30;99.90;;;;;;4949572;28;37292;-78
2023/04/22 07:46:49;;;;;;;30.55;27.17;;;11.60;99.90;;;;;;4944551;28;36602;-78
2023/04/22 07:49:18;;;;;;;31.90;24.73;;;11.70;99.90;;;;;;4933754;28;40075;-79
2023/04/22 07:51:44;;;;;;;28.80;25.77;;;12.00;99.90;;;;;;4938331;28;38866;-80
2023/04/22 07:54:10;;;;;;;27.98;23.65;;;12.20;99.90;;;;;;4942059;28;37542;-77
2023/04/22 07:56:37;;;;;;;27.20;24.30;;;12.50;99.90;;;;;;4937230;28;37214;-77
2023/04/22 07:59:03;;;;;;;24.20;21.58;;;12.80;99.90;;;;;;4951900;28;38080;-77
2023/04/22 08:01:29;;;;;;;24.98;22.25;;;13.00;99.90;;;;;;4939257;28;37323;-77
2023/04/22 08:03:55;;;;;;;23.65;20.50;;;13.20;99.90;;;;;;4930966;28;38370;-76
2023/04/22 08:06:22;;;;;;;21.98;18.80;;;13.20;99.90;;;;;;4932577;28;36718;-78
2023/04/22 08:08:48;;;;;;;22.40;18.85;;;13.20;99.90;;;;;;4948073;28;39180;-77
2023/04/22 08:11:14;;;;;;;19.85;17.67;;;13.50;99.90;;;;;;4945342;28;37925;-77
2023/04/22 08:13:40;;;;;;;19.33;17.25;;;13.70;99.90;;;;;;4922474;28;38771;-78
2023/04/22 08:16:06;;;;;;;18.88;16.88;;;13.90;99.90;;;;;;4917623;28;36337;-76
2023/04/22 08:18:32;;;;;;;18.52;16.63;;;13.90;99.90;;;;;;4921763;28;39174;-74
2023/04/22 08:20:58;;;;;;;16.25;14.38;;;14.00;99.90;;;;;;4932308;28;38282;-79
2023/04/22 08:23:24;;;;;;;17.60;15.63;;;13.60;99.90;;;;;;4936958;28;39319;-83
2023/04/22 08:25:51;;;;;;;15.63;13.68;;;13.70;99.90;;;;;;4942158;28;36008;-79
2023/04/22 08:28:17;;;;;;;15.25;13.65;;;13.90;99.90;;;;;;4920383;28;37575;-79
2023/04/22 08:30:43;;;;;;;16.38;14.18;;;13.70;99.90;;;;;;4925213;28;40333;-78
2023/04/22 08:33:10;;;;;;;16.77;14.73;;;13.80;99.90;;;;;;4923775;28;37970;-79
2023/04/22 08:35:36;;;;;;;15.98;14.23;;;13.80;99.90;;;;;;4940463;28;36619;-79
2023/04/22 08:38:02;;;;;;;15.60;14.05;;;13.90;99.90;;;;;;4934360;28;38817;-81
2023/04/22 08:40:29;;;;;;;17.30;14.32;;;14.20;99.90;;;;;;4951100;28;38793;-80
2023/04/22 08:42:56;;;;;;;15.18;13.43;;;14.20;99.90;;;;;;4924978;28;39030;-79
2023/04/22 08:45:22;;;;;;;16.90;14.13;;;14.20;99.90;;;;;;4936324;28;37947;-79
2023/04/22 08:47:49;;;;;;;15.32;12.90;;;14.30;99.90;;;;;;4936306;28;39574;-79
2023/04/22 08:50:15;;;;;;;13.70;12.30;;;14.10;99.90;;;;;;4928114;28;38549;-80
2023/04/22 08:52:42;;;;;;;13.82;11.98;;;14.10;99.90;;;;;;4937192;28;36838;-77
2023/04/22 08:55:08;;;;;;;13.13;11.35;;;14.20;99.90;;;;;;4921642;28;38144;-77
2023/04/22 08:57:37;;;;;;;10.98;9.07;;;14.40;99.90;;;;;;4919354;28;38876;-81
2023/04/22 09:00:04;;;;;;;10.27;8.10;;;14.50;99.90;;;;;;4947725;28;38807;-81
2023/04/22 09:02:32;;;;;;;9.48;8.20;;;14.40;99.90;;;;;;4926675;28;36649;-79
2023/04/22 09:05:00;;;;;;;9.75;8.75;;;14.30;99.90;;;;;;4949974;28;34501;-81
2023/04/22 09:07:29;;;;;;;9.82;8.82;;;14.20;99.90;;;;;;4935109;28;36862;-78
2023/04/22 09:09:56;;;;;;;9.43;8.32;;;14.40;99.90;;;;;;4934252;28;39543;-77
2023/04/22 09:12:24;;;;;;;8.75;7.85;;;14.60;99.90;;;;;;4958770;28;36888;-77
2023/04/22 09:14:51;;;;;;;10.32;8.82;;;14.50;99.90;;;;;;4926710;28;37120;-78
2023/04/22 09:17:29;;;;;;;10.15;9.15;;;14.60;99.90;;;;;;4933706;28;40413;-77
2023/04/22 09:19:59;;;;;;;9.93;8.93;;;14.50;99.90;;;;;;4924587;28;38665;-74
2023/04/22 09:22:27;;;;;;;11.05;9.95;;;14.50;99.90;;;;;;4929673;28;37219;-77
2023/04/22 09:24:53;;;;;;;11.18;10.07;;;14.30;99.90;;;;;;4931985;28;36348;-77
2023/04/22 09:27:22;;;;;;;10.60;9.50;;;14.40;99.90;;;;;;4929157;28;39492;-77
2023/04/22 09:29:50;;;;;;;10.15;9.15;;;14.40;99.90;;;;;;4930689;28;37997;-78
2023/04/22 09:32:16;;;;;;;12.80;9.65;;;14.60;99.90;;;;;;4939272;28;38146;-79
2023/04/22 09:34:52;;;;;;;16.20;10.10;;;14.40;99.90;;;;;;4935716;28;36918;-78
2023/04/22 09:37:20;;;;;;;10.90;9.75;;;14.10;99.90;;;;;;4920941;28;39809;-77
2023/04/22 09:39:50;;;;;;;12.05;10.32;;;14.10;99.90;;;;;;4922568;28;39414;-80
2023/04/22 09:42:17;;;;;;;10.70;9.60;;;14.20;99.90;;;;;;4908802;28;37848;-76
2023/04/22 09:44:53;;;;;;;12.50;9.68;;;14.70;99.90;;;;;;4917490;28;36838;-77
2023/04/22 09:47:36;;;;;;;9.60;8.60;;;14.70;99.90;;;;;;4926129;28;38851;-77
2023/04/22 09:50:03;;;;;;;10.98;8.68;;;15.20;99.90;;;;;;4925937;28;38496;-77
2023/04/22 09:52:32;;;;;;;10.70;9.60;;;15.40;99.90;;;;;;4917576;28;36760;-76
2023/04/22 09:54:58;;;;;;;9.57;8.45;;;15.50;99.90;;;;;;4920725;28;36063;-79
2023/04/22 09:57:24;;;;;;;11.20;9.52;;;15.50;99.90;;;;;;4923965;28;37986;-84
2023/04/22 09:59:51;;;;;;;8.30;7.50;;;16.00;99.90;;;;;;4908728;29;40117;-84
2023/04/22 10:02:18;;;;;;;8.25;7.38;;;16.40;99.90;;;;;;4924295;28;37088;-80
2023/04/22 10:04:46;;;;;;;6.05;5.53;;;16.50;99.90;;;;;;4906999;29;36282;-80
2023/04/22 10:07:13;;;;;;;9.93;8.93;;;16.20;99.90;;;;;;4907011;28;38039;-85
2023/04/22 10:09:39;;;;;;;7.05;6.15;;;16.00;99.90;;;;;;4912146;29;37205;-85
2023/04/22 10:12:06;;;;;;;9.25;7.00;;;15.90;99.90;;;;;;4923312;28;38421;-85
2023/04/22 10:14:32;;;;;;;7.68;6.97;;;15.60;99.90;;;;;;4908455;29;36721;-84
2023/04/22 10:17:01;;;;;;;8.65;7.18;;;15.30;99.90;;;;;;4904257;29;37558;-85
2023/04/22 10:19:28;;;;;;;9.07;8.18;;;15.10;99.90;;;;;;4903164;29;47173;-82
2023/04/22 10:21:59;;;;;;;10.25;9.25;;;15.20;99.90;;;;;;4903553;29;35774;-86
2023/04/22 10:24:27;;;;;;;10.23;9.23;;;15.20;99.90;;;;;;4926352;28;36026;-78
2023/04/22 10:27:05;;;;;;;12.48;10.07;;;15.10;99.90;;;;;;4934899;28;38685;-75
2023/04/22 10:29:39;;;;;;;10.43;9.27;;;15.10;99.90;;;;;;4932167;28;47291;-80
2023/04/22 10:32:23;;;;;;;11.32;10.13;;;14.90;99.90;;;;;;4938713;28;37187;-85
2023/04/22 10:35:07;;;;;;;10.70;9.70;;;14.70;99.90;;;;;;4907786;29;37571;-79
2023/04/22 10:37:33;;;;;;;12.20;11.00;;;14.60;99.90;;;;;;4923251;28;48244;-81
2023/04/22 10:40:06;;;;;;;13.32;11.02;;;14.50;99.90;;;;;;4931196;28;38589;-81
2023/04/22 10:42:33;;;;;;;12.68;11.25;;;14.40;99.90;;;;;;4935978;28;47138;-81
2023/04/22 10:45:01;;;;;;;13.82;11.85;;;14.50;99.90;;;;;;4917706;28;37131;-85
2023/04/22 10:47:29;;;;;;;14.02;12.30;;;14.40;99.90;;;;;;4920077;28;38379;-85
2023/04/22 10:50:20;;;;;;;13.88;12.32;;;14.00;99.90;;;;;;4910861;29;38626;-86
2023/04/22 10:52:49;;;;;;;16.70;13.38;;;13.60;99.90;;;;;;4913343;28;48418;-85
2023/04/22 10:55:16;;;;;;;17.25;14.13;;;13.30;99.90;;;;;;4910961;28;36250;-86
2023/04/22 10:57:44;;;;;;;16.58;14.75;;;13.10;99.90;;;;;;4934486;28;39253;-83
2023/04/22 11:00:18;;;;;;;18.55;15.55;;;12.90;99.90;;;;;;4918356;28;40170;-82
2023/04/22 11:02:45;;;;;;;17.70;15.70;;;12.70;99.90;;;;;;4918782;29;38201;-82
2023/04/22 11:05:38;;;;;;;19.33;15.60;;;12.60;99.90;;;;;;4932854;28;35021;-82
2023/04/22 11:08:11;;;;;;;19.13;17.10;;;12.30;99.90;;;;;;4922287;29;38240;-80
2023/04/22 11:10:42;;;;;;;20.73;17.23;;;12.10;99.90;;;;;;4944479;28;38676;-81
2023/04/22 11:13:20;;;;;;;25.63;20.38;;;12.00;99.90;;;;;;5030845;23;39234;-82
2023/04/22 11:15:55;;;;;;;23.23;20.38;;;11.90;99.90;;;;;;5000337;28;38967;-81
2023/04/22 11:23:33;;;;;;;25.40;22.60;;;11.50;99.90;;;;;;5306161;23;20039;-81
2023/04/22 11:31:14;;;;;;;38.55;30.08;;;11.70;99.90;;;;;;5638117;23;20063;-81
2023/04/22 11:33:42;;;;;;;39.15;32.28;;;11.70;99.90;;;;;;5216412;23;37784;-82
2023/04/22 11:39:17;;;;;;;41.50;32.85;;;11.60;99.90;;;;;;5735441;23;20066;-81
2023/04/22 11:59:10;;;;;;;43.28;34.33;;;11.50;99.90;;;;;;5929803;23;20035;-81
2023/04/22 12:01:41;;;;;;;44.33;35.13;;;11.60;99.90;;;;;;4977442;28;39206;-78
2023/04/22 12:23:53;;;;;;;31.75;26.63;;;11.60;99.90;;;;;;5773761;23;20023;-82
2023/04/22 12:27:12;;;;;;;28.80;24.63;;;11.50;99.90;;;;;;5014917;28;38963;-80
2023/04/22 12:29:51;;;;;;;31.58;26.50;;;11.60;99.90;;;;;;5015742;28;48561;-82
2023/04/22 12:32:42;;;;;;;33.17;26.63;;;11.80;99.90;;;;;;5031333;28;37939;-82
2023/04/22 12:35:08;;;;;;;34.00;26.95;;;11.80;99.90;;;;;;5022353;28;38739;-80
2023/04/22 12:37:48;;;;;;;32.35;26.55;;;11.90;99.90;;;;;;5023105;28;38122;-84
2023/04/22 12:40:28;;;;;;;31.65;27.80;;;11.80;99.90;;;;;;5022778;28;38176;-82
2023/04/22 12:42:54;;;;;;;35.33;27.40;;;11.70;99.90;;;;;;5023850;28;37228;-81
2023/04/22 12:45:35;;;;;;;35.45;31.60;;;11.80;99.90;;;;;;5029378;28;40227;-81
2023/04/22 12:48:01;;;;;;;40.63;30.83;;;11.80;99.90;;;;;;5015989;28;39212;-79
2023/04/22 12:50:27;;;;;;;38.03;31.45;;;11.70;99.90;;;;;;5016136;28;48635;-80
2023/04/22 12:52:59;;;;;;;38.35;32.30;;;11.70;99.90;;;;;;5019777;28;37419;-83
2023/04/22 12:55:26;;;;;;;43.65;35.10;;;11.90;99.90;;;;;;5007146;28;38777;-80
2023/04/22 12:57:52;;;;;;;43.13;33.78;;;12.00;99.90;;;;;;4996452;28;37074;-82
2023/04/22 13:00:19;;;;;;;45.85;36.67;;;12.00;99.90;;;;;;5017335;28;38595;-80
2023/04/22 13:02:47;;;;;;;46.58;36.47;;;12.00;99.90;;;;;;4998638;28;37774;-82
2023/04/22 13:05:14;;;;;;;45.88;37.33;;;12.00;99.90;;;;;;5007341;28;38479;-81
2023/04/22 13:07:41;;;;;;;45.40;36.72;;;12.00;99.90;;;;;;5005729;28;38176;-81
2023/04/22 13:10:09;;;;;;;49.20;38.42;;;12.00;99.90;;;;;;4982507;28;36868;-81
2023/04/22 13:12:36;;;;;;;47.95;38.20;;;11.90;99.90;;;;;;4999676;28;36635;-80
2023/04/22 13:15:03;;;;;;;44.70;36.80;;;11.90;99.90;;;;;;5008968;28;37413;-81
2023/04/22 13:17:29;;;;;;;46.05;38.65;;;12.00;99.90;;;;;;5008486;28;46574;-80
2023/04/22 13:19:57;;;;;;;46.95;37.58;;;11.90;99.90;;;;;;5026491;28;39535;-81
2023/04/22 13:22:26;;;;;;;52.67;40.30;;;11.80;99.90;;;;;;5032670;28;38936;-80
2023/04/22 13:24:52;;;;;;;50.22;40.63;;;11.70;99.90;;;;;;5017095;28;37897;-81
2023/04/22 13:27:18;;;;;;;51.08;39.65;;;11.70;99.90;;;;;;5018699;28;38865;-81
2023/04/22 13:29:49;;;;;;;46.30;38.28;;;11.80;99.90;;;;;;5008808;28;38190;-80
2023/04/22 13:32:15;;;;;;;51.08;37.85;;;11.80;99.90;;;;;;4998959;28;37166;-81
2023/04/22 13:34:44;;;;;;;44.45;36.25;;;11.90;99.90;;;;;;5015209;28;38584;-81
2023/04/22 13:40:33;;;;;;;43.50;35.43;;;11.90;99.90;;;;;;5034459;28;50651;-82
2023/04/22 13:42:59;;;;;;;45.28;36.15;;;11.90;99.90;;;;;;5030065;28;38722;-80
2023/04/22 13:45:25;;;;;;;47.47;38.67;;;11.90;99.90;;;;;;5029917;28;39698;-80
2023/04/22 13:47:53;;;;;;;40.78;33.92;;;12.00;99.90;;;;;;5017045;28;40073;-80
2023/04/22 13:50:19;;;;;;;42.28;33.95;;;11.80;99.90;;;;;;5030927;28;39576;-82
2023/04/22 13:52:53;;;;;;;37.67;31.08;;;11.80;99.90;;;;;;5018122;28;38574;-80